createdAt,value
2022-12-16T00:01:58.626Z,98991.72
2022-12-16T00:04:44.788Z,98983.25
2022-12-16T00:07:20.434Z,98983.69
2022-12-16T00:10:04.382Z,98975.13
2022-12-16T00:12:36.236Z,98984.78
2022-12-16T00:15:26.007Z,98974.69
2022-12-16T00:18:12.699Z,98971.44
2022-12-16T00:20:58.884Z,98983.53
2022-12-16T00:23:48.495Z,98975.66
2022-12-16T00:26:31.225Z,98970.28
2022-12-16T00:29:17.868Z,98958.41
2022-12-16T00:32:03.756Z,98963.34
2022-12-16T00:34:48.552Z,98958.91
2022-12-16T00:37:32.791Z,98963.88
2022-12-16T00:40:11.293Z,98960.16
2022-12-16T00:42:48.717Z,98956.13
2022-12-16T00:45:42.686Z,98966.16
2022-12-16T00:48:29.599Z,98955.41
2022-12-16T00:51:13.735Z,98967.28
2022-12-16T00:54:03.950Z,98972.19
2022-12-16T00:56:46.048Z,98969.41
2022-12-16T00:59:26.708Z,98977.53
2022-12-16T01:02:10.371Z,98970.09
2022-12-16T01:04:53.678Z,98978.97
2022-12-16T01:07:29.474Z,98970.72
2022-12-16T01:10:05.197Z,98969.72
2022-12-16T01:12:38.399Z,98962.22
2022-12-16T01:15:18.599Z,98948.09
2022-12-16T01:17:59.309Z,98929.06
2022-12-16T01:20:40.363Z,98923.34
2022-12-16T01:23:20.992Z,98911.06
2022-12-16T01:26:03.722Z,98917.94
2022-12-16T01:28:42.672Z,98900.53
2022-12-16T01:31:23.062Z,98885.66
2022-12-16T01:33:58.515Z,98885.22
2022-12-16T01:36:47.774Z,98871.47
2022-12-16T01:39:25.249Z,98864.22
2022-12-16T01:42:05.695Z,98845.78
2022-12-16T01:44:54.930Z,98835.50
2022-12-16T01:47:40.404Z,98846.91
2022-12-16T01:50:25.911Z,98852.47
2022-12-16T01:53:09.994Z,98846.94
2022-12-16T01:55:54.018Z,98834.63
2022-12-16T01:58:39.378Z,98835.25
2022-12-16T02:01:18.094Z,98825.06
2022-12-16T02:03:57.798Z,98818.44
2022-12-16T02:06:33.346Z,98813.16
2022-12-16T02:09:17.910Z,98798.78
2022-12-16T02:12:44.369Z,98783.91
2022-12-16T02:15:44.765Z,98777.75
2022-12-16T02:18:55.763Z,98773.56
2022-12-16T02:22:07.345Z,98773.22
2022-12-16T02:25:17.396Z,98760.19
2022-12-16T02:28:04.452Z,98754.78
2022-12-16T02:31:13.771Z,98732.31
2022-12-16T02:34:21.186Z,98719.94
2022-12-16T02:37:24.896Z,98700.97
2022-12-16T02:40:11.215Z,98669.75
2022-12-16T02:43:36.465Z,98672.88
2022-12-16T02:46:18.539Z,98664.69
2022-12-16T02:49:30.397Z,98669.44
2022-12-16T02:52:20.000Z,98658.53
2022-12-16T02:55:04.977Z,98650.94
2022-12-16T02:58:15.074Z,98630.19
2022-12-16T03:01:08.646Z,98626.53
2022-12-16T03:04:33.031Z,98640.28
2022-12-16T03:07:23.403Z,98645.78
2022-12-16T03:10:07.722Z,98662.28
2022-12-16T03:12:47.422Z,98678.75
2022-12-16T03:15:35.172Z,98682.44
2022-12-16T03:18:18.457Z,98676.09
2022-12-16T03:21:02.096Z,98669.06
2022-12-16T03:24:14.148Z,98646.25
2022-12-16T03:27:18.877Z,98639.09
2022-12-16T03:30:25.566Z,98624.28
2022-12-16T03:33:18.579Z,98614.00
2022-12-16T03:36:16.089Z,98615.47
2022-12-16T03:38:56.896Z,98624.69
2022-12-16T03:41:41.591Z,98621.81
2022-12-16T03:44:20.001Z,98623.06
2022-12-16T03:47:08.099Z,98613.59
2022-12-16T03:49:52.289Z,98596.97
2022-12-16T03:52:38.926Z,98593.09
2022-12-16T03:55:24.680Z,98605.44
2022-12-16T03:58:07.887Z,98607.06
2022-12-16T04:00:51.237Z,98617.72
2022-12-16T04:03:32.750Z,98634.41
2022-12-16T04:06:23.204Z,98641.19
2022-12-16T04:09:07.403Z,98644.88
2022-12-16T04:12:07.999Z,98622.69
2022-12-16T04:15:07.282Z,98617.16
2022-12-16T04:18:00.926Z,98595.56
2022-12-16T04:21:05.598Z,98593.28
2022-12-16T04:24:16.575Z,98588.56
2022-12-16T04:27:15.588Z,98581.59
2022-12-16T04:30:13.318Z,98574.81
2022-12-16T04:33:24.249Z,98564.72
2022-12-16T04:36:18.076Z,98572.94
2022-12-16T04:39:13.127Z,98579.53
2022-12-16T04:42:12.280Z,98570.88
2022-12-16T04:45:09.198Z,98563.88
2022-12-16T04:48:02.972Z,98567.19
2022-12-16T04:50:59.825Z,98560.59
2022-12-16T04:53:56.147Z,98562.88
2022-12-16T04:56:58.171Z,98560.81
2022-12-16T04:59:58.089Z,98554.63
2022-12-16T05:02:53.254Z,98555.06
2022-12-16T05:05:44.316Z,98558.75
2022-12-16T05:08:41.122Z,98565.31
2022-12-16T05:11:37.561Z,98571.91
2022-12-16T05:14:36.493Z,98569.44
2022-12-16T05:17:30.885Z,98579.94
2022-12-16T05:20:33.180Z,98586.50
2022-12-16T05:23:31.950Z,98574.97
2022-12-16T05:26:26.927Z,98555.66
2022-12-16T05:29:23.537Z,98545.78
2022-12-16T05:32:14.198Z,98538.81
2022-12-16T05:35:18.251Z,98520.72
2022-12-16T05:38:14.943Z,98518.47
2022-12-16T05:41:11.414Z,98504.09
2022-12-16T05:44:11.959Z,98511.69
2022-12-16T05:47:00.157Z,98514.97
2022-12-16T05:50:02.107Z,98508.19
2022-12-16T05:52:58.515Z,98508.19
2022-12-16T05:55:52.359Z,98522.78
2022-12-16T05:58:49.612Z,98526.25
2022-12-16T06:01:40.671Z,98532.25
2022-12-16T06:04:34.962Z,98541.25
2022-12-16T06:07:26.154Z,98547.22
2022-12-16T06:10:36.574Z,98560.41
2022-12-16T06:13:35.721Z,98555.25
2022-12-16T06:16:32.740Z,98559.19
2022-12-16T06:19:29.671Z,98564.28
2022-12-16T06:22:20.873Z,98573.34
2022-12-16T06:25:17.922Z,98573.34
2022-12-16T06:28:14.965Z,98576.03
2022-12-16T06:31:08.417Z,98561.84
2022-12-16T06:34:04.889Z,98561.03
2022-12-16T06:36:55.766Z,98570.69
2022-12-16T06:39:53.067Z,98554.84
2022-12-16T06:42:47.215Z,98555.25
2022-12-16T06:45:43.840Z,98545.81
2022-12-16T06:48:43.469Z,98544.56
2022-12-16T06:51:37.251Z,98541.47
2022-12-16T06:54:34.009Z,98552.78
2022-12-16T06:57:27.211Z,98547.66
2022-12-16T07:00:23.588Z,98555.66
2022-12-16T07:03:23.698Z,98553.84
2022-12-16T07:06:31.615Z,98562.44
2022-12-16T07:09:26.218Z,98570.06
2022-12-16T07:12:22.641Z,98568.63
2022-12-16T07:15:19.013Z,98565.34
2022-12-16T07:18:19.125Z,98576.84
2022-12-16T07:21:16.378Z,98588.16
2022-12-16T07:24:09.928Z,98588.75
2022-12-16T07:27:05.840Z,98591.66
2022-12-16T07:30:03.045Z,98593.28
2022-12-16T07:32:57.442Z,98584.06
2022-12-16T07:35:51.425Z,98569.44
2022-12-16T07:39:05.887Z,98571.50
2022-12-16T07:42:02.352Z,98571.72
2022-12-16T07:44:58.870Z,98576.84
2022-12-16T07:48:05.103Z,98578.69
2022-12-16T07:51:12.865Z,98593.50
2022-12-16T07:54:12.471Z,98592.88
2022-12-16T07:57:05.941Z,98585.69
2022-12-16T08:00:03.060Z,98557.94
2022-12-16T08:03:12.760Z,98554.41
2022-12-16T08:06:07.749Z,98545.19
2022-12-16T08:09:03.727Z,98542.09
2022-12-16T08:12:03.340Z,98564.28
2022-12-16T08:14:59.135Z,98563.22
2022-12-16T08:17:55.266Z,98557.19
2022-12-16T08:20:49.036Z,98553.50
2022-12-16T08:23:42.520Z,98579.69
2022-12-16T08:26:35.879Z,98580.31
2022-12-16T08:29:45.590Z,98579.09
2022-12-16T08:32:48.045Z,98609.69
2022-12-16T08:35:49.162Z,98597.16
2022-12-16T08:38:46.410Z,98607.41
2022-12-16T08:41:40.100Z,98616.44
2022-12-16T08:44:34.192Z,98626.13
2022-12-16T08:47:22.486Z,98627.97
2022-12-16T08:50:21.841Z,98635.44
2022-12-16T08:53:34.718Z,98642.22
2022-12-16T08:56:23.621Z,98645.09
2022-12-16T08:59:19.977Z,98637.28
2022-12-16T09:02:19.558Z,98623.91
2022-12-16T09:05:16.156Z,98628.22
2022-12-16T09:08:18.084Z,98612.19
2022-12-16T09:11:14.477Z,98607.81
2022-12-16T09:14:15.943Z,98598.31
2022-12-16T09:17:12.437Z,98614.38
2022-12-16T09:20:06.172Z,98610.06
2022-12-16T09:23:22.730Z,98595.84
2022-12-16T09:26:15.340Z,98612.16
2022-12-16T09:29:24.496Z,98602.06
2022-12-16T09:32:18.912Z,98601.81
2022-12-16T09:35:15.065Z,98611.03
2022-12-16T09:38:15.149Z,98629.09
2022-12-16T09:41:12.227Z,98626.41
2022-12-16T09:44:19.703Z,98630.69
2022-12-16T09:47:20.147Z,98637.22
2022-12-16T09:50:13.621Z,98642.38
2022-12-16T09:53:19.024Z,98654.75
2022-12-16T09:56:16.265Z,98654.34
2022-12-16T09:59:18.103Z,98652.41
2022-12-16T10:02:20.422Z,98663.38
2022-12-16T10:05:20.944Z,98683.31
2022-12-16T10:08:46.241Z,98677.16
2022-12-16T10:11:56.807Z,98685.00
2022-12-16T10:15:00.390Z,98674.72
2022-12-16T10:17:51.033Z,98669.00
2022-12-16T10:20:58.184Z,98659.38
2022-12-16T10:24:18.401Z,98659.13
2022-12-16T10:28:02.000Z,98673.69
2022-12-16T10:31:03.170Z,98668.06
2022-12-16T10:33:58.164Z,98673.31
2022-12-16T10:36:54.165Z,98682.84
2022-12-16T10:40:09.298Z,98689.66
2022-12-16T10:43:30.361Z,98695.09
2022-12-16T10:46:37.676Z,98686.97
2022-12-16T10:49:34.617Z,98685.66
2022-12-16T10:52:29.952Z,98684.41
2022-12-16T10:55:34.133Z,98687.84
2022-12-16T10:58:35.820Z,98676.34
2022-12-16T11:01:46.537Z,98657.84
2022-12-16T11:04:57.120Z,98680.09
2022-12-16T11:07:51.538Z,98675.34
2022-12-16T11:11:12.108Z,98682.31
2022-12-16T11:14:01.192Z,98689.94
2022-12-16T11:17:19.344Z,98696.88
2022-12-16T11:20:33.801Z,98685.56
2022-12-16T11:23:33.459Z,98692.34
2022-12-16T11:26:38.775Z,98693.78
2022-12-16T11:29:37.320Z,98691.53
2022-12-16T11:32:47.622Z,98689.03
2022-12-16T11:35:41.644Z,98700.19
2022-12-16T11:39:07.787Z,98708.72
2022-12-16T11:42:09.031Z,98711.78
2022-12-16T11:45:13.886Z,98713.28
2022-12-16T11:49:01.922Z,98720.91
2022-12-16T11:52:28.461Z,98715.59
2022-12-16T11:59:11.836Z,98727.50
2022-12-16T12:02:17.442Z,98733.22
2022-12-16T12:05:20.704Z,98734.09
2022-12-16T12:08:24.667Z,98759.66
2022-12-16T12:11:42.223Z,98776.53
2022-12-16T12:14:51.734Z,98777.59
2022-12-16T12:18:07.398Z,98779.22
2022-12-16T12:21:34.965Z,98779.84
2022-12-16T12:24:46.057Z,98788.47
2022-12-16T12:28:07.222Z,98791.38
2022-12-16T12:31:11.077Z,98801.47
2022-12-16T12:34:32.149Z,98770.41
2022-12-16T12:37:42.456Z,98757.03
2022-12-16T12:41:05.278Z,98749.00
2022-12-16T12:44:36.651Z,98730.84
2022-12-16T12:47:48.985Z,98730.06
2022-12-16T12:50:49.056Z,98728.81
2022-12-16T12:54:15.641Z,98724.28
2022-12-16T12:57:12.590Z,98730.03
2022-12-16T13:00:09.288Z,98734.97
2022-12-16T13:03:25.614Z,98741.16
2022-12-16T13:06:21.240Z,98740.91
2022-12-16T13:09:19.298Z,98758.41
2022-12-16T13:12:41.613Z,98765.38
2022-12-16T13:15:41.699Z,98764.25
2022-12-16T13:18:43.211Z,98769.56
2022-12-16T13:21:56.673Z,98779.03
2022-12-16T13:25:11.678Z,98783.16
2022-12-16T13:28:15.325Z,98786.25
2022-12-16T13:31:25.725Z,98785.41
2022-12-16T13:34:38.476Z,98781.03
2022-12-16T13:37:49.021Z,98775.28
2022-12-16T13:40:46.584Z,98779.38
2022-12-16T13:44:24.527Z,98785.31
2022-12-16T13:47:38.368Z,98801.03
2022-12-16T13:51:00.391Z,98801.84
2022-12-16T13:54:12.542Z,98811.84
2022-12-16T13:57:07.871Z,98811.91
2022-12-16T14:00:03.146Z,98839.50
2022-12-16T14:03:11.023Z,98840.75
2022-12-16T14:06:09.775Z,98851.72
2022-12-16T14:09:08.471Z,98861.00
2022-12-16T14:12:07.561Z,98861.00
2022-12-16T14:15:26.501Z,98857.09
2022-12-16T14:18:29.808Z,98847.44
2022-12-16T14:21:31.667Z,98861.06
2022-12-16T14:24:46.866Z,98858.78
2022-12-16T14:27:41.193Z,98866.19
2022-12-16T14:30:50.384Z,98860.00
2022-12-16T14:33:47.844Z,98851.16
2022-12-16T14:37:00.723Z,98842.50
2022-12-16T14:40:08.089Z,98840.44
2022-12-16T14:43:08.432Z,98837.16
2022-12-16T14:46:06.962Z,98832.22
2022-12-16T14:49:04.868Z,98839.22
2022-12-16T14:52:13.215Z,98846.81
2022-12-16T14:55:08.554Z,98856.09
2022-12-16T14:58:03.234Z,98870.53
2022-12-16T15:00:58.484Z,98887.41
2022-12-16T15:03:59.610Z,98897.72
2022-12-16T15:07:00.647Z,98888.66
2022-12-16T15:09:55.868Z,98902.66
2022-12-16T15:12:54.009Z,98908.63
2022-12-16T15:15:54.837Z,98909.44
2022-12-16T15:19:05.936Z,98909.63
2022-12-16T15:22:06.532Z,98902.22
2022-12-16T15:25:00.262Z,98908.19
2022-12-16T15:28:01.022Z,98909.22
2022-12-16T15:31:18.847Z,98903.84
2022-12-16T15:34:24.241Z,98909.41
2022-12-16T15:37:41.661Z,98921.38
2022-12-16T15:40:51.142Z,98925.94
2022-12-16T15:43:53.651Z,98928.38
2022-12-16T15:47:06.087Z,98947.94
2022-12-16T15:50:04.829Z,98969.16
2022-12-16T15:53:02.767Z,98979.28
2022-12-16T15:56:14.273Z,98966.44
2022-12-16T15:59:07.740Z,98961.47
2022-12-16T16:02:10.365Z,98979.81
2022-12-16T16:05:18.486Z,98994.47
2022-12-16T16:08:15.255Z,98985.41
2022-12-16T16:11:15.895Z,98982.09
2022-12-16T16:14:17.452Z,98976.91
2022-12-16T16:17:11.447Z,98982.84
2022-12-16T16:20:08.651Z,98985.50
2022-12-16T16:23:05.839Z,98986.06
2022-12-16T16:26:06.190Z,98968.75
2022-12-16T16:29:03.126Z,98970.41
2022-12-16T16:32:03.844Z,98955.16
2022-12-16T16:34:56.121Z,98966.44
2022-12-16T16:38:07.251Z,98982.72
2022-12-16T16:41:39.810Z,98985.38
2022-12-16T16:44:41.730Z,98962.09
2022-12-16T16:47:44.736Z,98976.03
2022-12-16T16:50:40.140Z,98983.41
2022-12-16T16:53:39.485Z,98969.00
2022-12-16T16:56:36.439Z,98975.78
2022-12-16T16:59:34.360Z,98980.50
2022-12-16T17:02:41.044Z,98971.22
2022-12-16T17:05:35.873Z,98955.34
2022-12-16T17:08:27.034Z,98961.91
2022-12-16T17:11:33.426Z,98990.63
2022-12-16T17:14:37.769Z,98997.38
2022-12-16T17:17:36.021Z,98990.78
2022-12-16T17:20:36.568Z,99008.13
2022-12-16T17:23:33.148Z,99008.47
2022-12-16T17:26:30.538Z,98998.75
2022-12-16T17:29:24.965Z,99009.38
2022-12-16T17:32:16.257Z,99011.41
2022-12-16T17:35:14.978Z,99013.88
2022-12-16T17:38:11.246Z,99028.78
2022-12-16T17:41:10.128Z,99043.84
2022-12-16T17:44:11.120Z,99032.59
2022-12-16T17:47:14.803Z,99043.97
2022-12-16T17:50:11.235Z,99043.78
2022-12-16T17:53:14.955Z,99047.06
2022-12-16T17:56:14.257Z,99047.84
2022-12-16T17:59:11.102Z,99065.59
2022-12-16T18:02:05.735Z,99061.63
2022-12-16T18:04:57.068Z,99064.25
2022-12-16T18:07:50.947Z,99064.53
2022-12-16T18:10:47.997Z,99062.28
2022-12-16T18:13:48.759Z,99059.63
2022-12-16T18:16:43.294Z,99059.88
2022-12-16T18:19:41.249Z,99048.41
2022-12-16T18:22:45.203Z,99039.16
2022-12-16T18:25:42.151Z,99041.19
2022-12-16T18:28:38.969Z,99041.44
2022-12-16T18:31:34.617Z,99036.53
2022-12-16T18:34:28.092Z,99044.53
2022-12-16T18:37:30.934Z,99049.25
2022-12-16T18:40:24.226Z,99043.16
2022-12-16T18:43:21.582Z,99048.81
2022-12-16T18:46:24.173Z,99067.81
2022-12-16T18:49:18.965Z,99052.94
2022-12-16T18:52:12.932Z,99045.75
2022-12-16T18:55:24.292Z,99058.03
2022-12-16T18:58:49.868Z,99053.06
2022-12-16T19:01:41.985Z,99058.31
2022-12-16T19:04:44.881Z,99053.88
2022-12-16T19:07:42.623Z,99063.09
2022-12-16T19:10:44.540Z,99062.25
2022-12-16T19:13:44.554Z,99062.59
2022-12-16T19:16:45.807Z,99061.78
2022-12-16T19:19:42.901Z,99046.78
2022-12-16T19:22:37.502Z,99061.84
2022-12-16T19:25:33.533Z,99080.25
2022-12-16T19:28:36.960Z,99078.38
2022-12-16T19:31:37.226Z,99090.53
2022-12-16T19:34:35.878Z,99099.50
2022-12-16T19:37:33.669Z,99091.28
2022-12-16T19:40:32.235Z,99088.13
2022-12-16T19:43:26.315Z,99096.63
2022-12-16T19:46:17.670Z,99097.25
2022-12-16T19:49:15.032Z,99100.56
2022-12-16T19:52:16.249Z,99099.63
2022-12-16T19:55:17.251Z,99104.88
2022-12-16T19:58:09.104Z,99105.53
2022-12-16T20:01:12.134Z,99096.78
2022-12-16T20:04:14.727Z,99098.75
2022-12-16T20:07:09.456Z,99088.59
2022-12-16T20:10:03.576Z,99092.19
2022-12-16T20:12:57.511Z,99090.31
2022-12-16T20:15:51.888Z,99097.13
2022-12-16T20:18:49.916Z,99096.19
2022-12-16T20:21:48.952Z,99093.03
2022-12-16T20:24:56.353Z,99109.16
2022-12-16T20:27:52.892Z,99114.19
2022-12-16T20:30:49.889Z,99130.81
2022-12-16T20:33:47.572Z,99137.28
2022-12-16T20:37:01.484Z,99132.25
2022-12-16T20:39:58.547Z,99119.63
2022-12-16T20:42:53.523Z,99123.97
2022-12-16T20:45:47.389Z,99125.34
2022-12-16T20:48:39.852Z,99120.91
2022-12-16T20:51:39.497Z,99123.31
2022-12-16T20:54:38.052Z,99121.97
2022-12-16T20:57:34.317Z,99125.56
2022-12-16T21:00:34.429Z,99135.13
2022-12-16T21:03:36.969Z,99133.88
2022-12-16T21:06:46.125Z,99131.19
2022-12-16T21:09:45.945Z,99129.34
2022-12-16T21:12:43.042Z,99128.16
2022-12-16T21:15:34.367Z,99127.88
2022-12-16T21:18:30.106Z,99129.28
2022-12-16T21:21:21.604Z,99144.38
2022-12-16T21:24:12.864Z,99153.97
2022-12-16T21:27:14.352Z,99145.09
2022-12-16T21:30:09.161Z,99139.75
2022-12-16T21:32:57.902Z,99152.72
2022-12-16T21:35:56.050Z,99153.19
2022-12-16T21:38:47.765Z,99152.47
2022-12-16T21:41:52.638Z,99146.28
2022-12-16T21:44:50.433Z,99145.69
2022-12-16T21:47:46.978Z,99151.53
2022-12-16T21:50:38.301Z,99151.91
2022-12-16T21:53:36.285Z,99162.03
2022-12-16T21:56:32.592Z,99171.66
2022-12-16T21:59:26.176Z,99154.81
2022-12-16T22:02:23.038Z,99149.47
2022-12-16T22:05:17.367Z,99148.22
2022-12-16T22:08:17.247Z,99156.16
2022-12-16T22:11:10.970Z,99158.38
2022-12-16T22:14:07.773Z,99165.75
2022-12-16T22:16:58.683Z,99171.53
2022-12-16T22:20:01.661Z,99178.84
2022-12-16T22:22:51.185Z,99177.34
2022-12-16T22:25:48.693Z,99174.34
2022-12-16T22:28:46.287Z,99179.00
2022-12-16T22:31:47.972Z,99185.56
2022-12-16T22:34:44.911Z,99175.94
2022-12-16T22:37:43.752Z,99177.56
2022-12-16T22:40:36.872Z,99186.34
2022-12-16T22:43:25.262Z,99186.09
2022-12-16T22:46:27.370Z,99180.09
2022-12-16T22:49:24.128Z,99180.75
2022-12-16T22:52:14.878Z,99182.47
2022-12-16T22:55:11.219Z,99183.97
2022-12-16T22:58:01.895Z,99185.78
2022-12-16T23:01:06.877Z,99185.16
2022-12-16T23:04:03.929Z,99176.41
2022-12-16T23:07:02.951Z,99176.06
2022-12-16T23:10:07.025Z,99184.34
2022-12-16T23:12:57.514Z,99179.53
2022-12-16T23:19:17.028Z,99184.19
2022-12-16T23:22:13.139Z,99181.97
2022-12-16T23:25:07.072Z,99187.41
2022-12-16T23:28:03.782Z,99192.25
2022-12-16T23:30:57.359Z,99183.75
2022-12-16T23:33:59.978Z,99178.19
2022-12-16T23:37:01.686Z,99194.56
2022-12-16T23:39:59.209Z,99188.22
2022-12-16T23:42:57.736Z,99195.91
2022-12-16T23:45:51.600Z,99200.00
2022-12-16T23:48:50.905Z,99209.31
2022-12-16T23:51:46.386Z,99209.25
2022-12-16T23:54:41.033Z,99190.56
2022-12-16T23:57:37.829Z,99186.91
